sensor_id;sensor_type;location;lat;lon;timestamp;temperature;humidity
3626;DHT22;1827;50.534;8.316;2022-09-01T00:02:00;11.30;99.90
3626;DHT22;1827;50.534;8.316;2022-09-01T00:04:33;11.30;99.90
3626;DHT22;1827;50.534;8.316;2022-09-01T00:07:00;11.30;99.90
3626;DHT22;1827;50.534;8.316;2022-09-01T00:09:25;11.30;99.90
3626;DHT22;1827;50.534;8.316;2022-09-01T00:11:52;11.30;99.90
3626;DHT22;1827;50.534;8.316;2022-09-01T00:14:20;11.30;99.90
3626;DHT22;1827;50.534;8.316;2022-09-01T00:16:45;11.30;99.90
3626;DHT22;1827;50.534;8.316;2022-09-01T00:19:11;11.30;99.90
3626;DHT22;1827;50.534;8.316;2022-09-01T00:21:39;11.20;99.90
3626;DHT22;1827;50.534;8.316;2022-09-01T00:24:05;11.20;99.90
3626;DHT22;1827;50.534;8.316;2022-09-01T00:26:32;11.10;99.90
3626;DHT22;1827;50.534;8.316;2022-09-01T00:28:57;11.10;99.90
3626;DHT22;1827;50.534;8.316;2022-09-01T00:31:24;11.10;99.90
3626;DHT22;1827;50.534;8.316;2022-09-01T00:33:50;11.10;99.90
3626;DHT22;1827;50.534;8.316;2022-09-01T00:36:16;11.10;99.90
3626;DHT22;1827;50.534;8.316;2022-09-01T00:38:42;11.10;99.90
3626;DHT22;1827;50.534;8.316;2022-09-01T00:41:08;11.00;99.90
3626;DHT22;1827;50.534;8.316;2022-09-01T00:43:35;11.00;99.90
3626;DHT22;1827;50.534;8.316;2022-09-01T00:46:02;10.90;99.90
3626;DHT22;1827;50.534;8.316;2022-09-01T00:48:28;10.90;99.90
3626;DHT22;1827;50.534;8.316;2022-09-01T00:50:54;10.90;99.90
3626;DHT22;1827;50.534;8.316;2022-09-01T00:53:20;10.90;99.90
3626;DHT22;1827;50.534;8.316;2022-09-01T00:55:46;10.90;99.90
3626;DHT22;1827;50.534;8.316;2022-09-01T00:58:11;10.80;99.90
3626;DHT22;1827;50.534;8.316;2022-09-01T01:00:37;10.80;99.90
3626;DHT22;1827;50.534;8.316;2022-09-01T01:03:11;10.90;99.90
3626;DHT22;1827;50.534;8.316;2022-09-01T01:05:39;10.80;99.90
3626;DHT22;1827;50.534;8.316;2022-09-01T01:08:07;10.80;99.90
3626;DHT22;1827;50.534;8.316;2022-09-01T01:10:35;10.70;99.90
3626;DHT22;1827;50.534;8.316;2022-09-01T01:13:05;10.70;99.90
3626;DHT22;1827;50.534;8.316;2022-09-01T01:15:33;10.70;99.90
3626;DHT22;1827;50.534;8.316;2022-09-01T01:17:59;10.70;99.90
3626;DHT22;1827;50.534;8.316;2022-09-01T01:20:25;10.70;99.90
3626;DHT22;1827;50.534;8.316;2022-09-01T01:25:42;10.60;99.90
3626;DHT22;1827;50.534;8.316;2022-09-01T01:30:39;10.60;99.90
3626;DHT22;1827;50.534;8.316;2022-09-01T01:33:06;10.60;99.90
3626;DHT22;1827;50.534;8.316;2022-09-01T01:35:32;10.60;99.90
3626;DHT22;1827;50.534;8.316;2022-09-01T01:37:59;10.50;99.90
3626;DHT22;1827;50.534;8.316;2022-09-01T01:40:27;10.50;99.90
3626;DHT22;1827;50.534;8.316;2022-09-01T01:42:53;10.50;99.90
3626;DHT22;1827;50.534;8.316;2022-09-01T01:45:20;10.50;99.90
3626;DHT22;1827;50.534;8.316;2022-09-01T01:47:46;10.50;99.90
3626;DHT22;1827;50.534;8.316;2022-09-01T01:50:22;10.50;99.90
3626;DHT22;1827;50.534;8.316;2022-09-01T01:52:48;10.50;99.90
3626;DHT22;1827;50.534;8.316;2022-09-01T01:55:14;10.40;99.90
3626;DHT22;1827;50.534;8.316;2022-09-01T01:57:45;10.40;99.90
3626;DHT22;1827;50.534;8.316;2022-09-01T02:00:16;10.40;99.90
3626;DHT22;1827;50.534;8.316;2022-09-01T02:02:44;10.30;99.90
3626;DHT22;1827;50.534;8.316;2022-09-01T02:05:20;10.30;99.90
3626;DHT22;1827;50.534;8.316;2022-09-01T02:07:50;10.30;99.90
3626;DHT22;1827;50.534;8.316;2022-09-01T02:10:16;10.30;99.90
3626;DHT22;1827;50.534;8.316;2022-09-01T02:12:42;10.30;99.90
3626;DHT22;1827;50.534;8.316;2022-09-01T02:15:08;10.30;99.90
3626;DHT22;1827;50.534;8.316;2022-09-01T02:17:37;10.20;99.90
3626;DHT22;1827;50.534;8.316;2022-09-01T02:20:05;10.20;99.90
3626;DHT22;1827;50.534;8.316;2022-09-01T02:22:31;10.20;99.90
3626;DHT22;1827;50.534;8.316;2022-09-01T02:24:57;10.20;99.90
3626;DHT22;1827;50.534;8.316;2022-09-01T02:27:25;10.10;99.90
3626;DHT22;1827;50.534;8.316;2022-09-01T02:29:54;10.10;99.90
3626;DHT22;1827;50.534;8.316;2022-09-01T02:32:20;10.10;99.90
3626;DHT22;1827;50.534;8.316;2022-09-01T02:34:50;10.10;99.90
3626;DHT22;1827;50.534;8.316;2022-09-01T02:37:19;10.10;99.90
3626;DHT22;1827;50.534;8.316;2022-09-01T02:39:52;10.00;99.90
3626;DHT22;1827;50.534;8.316;2022-09-01T02:42:18;10.10;99.90
3626;DHT22;1827;50.534;8.316;2022-09-01T02:44:52;10.00;99.90
3626;DHT22;1827;50.534;8.316;2022-09-01T02:47:18;9.90;99.90
3626;DHT22;1827;50.534;8.316;2022-09-01T02:49:44;9.90;99.90
3626;DHT22;1827;50.534;8.316;2022-09-01T02:52:11;9.90;99.90
3626;DHT22;1827;50.534;8.316;2022-09-01T02:54:40;9.90;99.90
3626;DHT22;1827;50.534;8.316;2022-09-01T02:57:08;9.90;99.90
3626;DHT22;1827;50.534;8.316;2022-09-01T02:59:34;9.90;99.90
3626;DHT22;1827;50.534;8.316;2022-09-01T03:02:00;9.90;99.90
3626;DHT22;1827;50.534;8.316;2022-09-01T03:04:26;9.90;99.90
3626;DHT22;1827;50.534;8.316;2022-09-01T03:06:52;9.90;99.90
3626;DHT22;1827;50.534;8.316;2022-09-01T03:09:19;9.90;99.90
3626;DHT22;1827;50.534;8.316;2022-09-01T03:11:47;9.90;99.90
3626;DHT22;1827;50.534;8.316;2022-09-01T03:14:13;9.90;99.90
3626;DHT22;1827;50.534;8.316;2022-09-01T03:16:39;9.90;99.90
3626;DHT22;1827;50.534;8.316;2022-09-01T03:19:06;9.90;99.90
3626;DHT22;1827;50.534;8.316;2022-09-01T03:21:37;9.80;99.90
3626;DHT22;1827;50.534;8.316;2022-09-01T03:24:08;9.80;99.90
3626;DHT22;1827;50.534;8.316;2022-09-01T03:26:35;9.80;99.90
3626;DHT22;1827;50.534;8.316;2022-09-01T03:29:01;9.80;99.90
3626;DHT22;1827;50.534;8.316;2022-09-01T03:31:28;9.80;99.90
3626;DHT22;1827;50.534;8.316;2022-09-01T03:33:55;9.80;99.90
3626;DHT22;1827;50.534;8.316;2022-09-01T03:36:26;9.80;99.90
3626;DHT22;1827;50.534;8.316;2022-09-01T03:38:53;9.70;99.90
3626;DHT22;1827;50.534;8.316;2022-09-01T03:41:20;9.80;99.90
3626;DHT22;1827;50.534;8.316;2022-09-01T03:43:47;9.80;99.90
3626;DHT22;1827;50.534;8.316;2022-09-01T03:46:14;9.80;99.90
3626;DHT22;1827;50.534;8.316;2022-09-01T03:48:46;9.80;99.90
3626;DHT22;1827;50.534;8.316;2022-09-01T03:51:14;9.70;99.90
3626;DHT22;1827;50.534;8.316;2022-09-01T03:53:40;9.70;99.90
3626;DHT22;1827;50.534;8.316;2022-09-01T03:56:06;9.70;99.90
3626;DHT22;1827;50.534;8.316;2022-09-01T03:58:34;9.60;99.90
3626;DHT22;1827;50.534;8.316;2022-09-01T04:01:00;9.60;99.90
3626;DHT22;1827;50.534;8.316;2022-09-01T04:03:28;9.60;99.90
3626;DHT22;1827;50.534;8.316;2022-09-01T04:05:56;9.60;99.90
3626;DHT22;1827;50.534;8.316;2022-09-01T04:08:23;9.60;99.90
3626;DHT22;1827;50.534;8.316;2022-09-01T04:10:54;9.60;99.90
3626;DHT22;1827;50.534;8.316;2022-09-01T04:13:24;9.70;99.90
3626;DHT22;1827;50.534;8.316;2022-09-01T04:15:51;9.60;99.90
3626;DHT22;1827;50.534;8.316;2022-09-01T04:18:17;9.60;99.90
3626;DHT22;1827;50.534;8.316;2022-09-01T04:20:48;9.60;99.90
3626;DHT22;1827;50.534;8.316;2022-09-01T04:25:57;9.50;99.90
3626;DHT22;1827;50.534;8.316;2022-09-01T04:28:25;9.50;99.90
3626;DHT22;1827;50.534;8.316;2022-09-01T04:30:56;9.50;99.90
3626;DHT22;1827;50.534;8.316;2022-09-01T04:33:26;9.50;99.90
3626;DHT22;1827;50.534;8.316;2022-09-01T04:36:03;9.50;99.90
3626;DHT22;1827;50.534;8.316;2022-09-01T04:38:30;9.50;99.90
3626;DHT22;1827;50.534;8.316;2022-09-01T04:41:04;9.50;99.90
3626;DHT22;1827;50.534;8.316;2022-09-01T04:43:32;9.50;99.90
3626;DHT22;1827;50.534;8.316;2022-09-01T04:45:57;9.40;99.90
3626;DHT22;1827;50.534;8.316;2022-09-01T04:48:24;9.40;99.90
3626;DHT22;1827;50.534;8.316;2022-09-01T04:50:51;9.50;99.90
3626;DHT22;1827;50.534;8.316;2022-09-01T04:53:23;9.40;99.90
3626;DHT22;1827;50.534;8.316;2022-09-01T04:55:49;9.40;99.90
3626;DHT22;1827;50.534;8.316;2022-09-01T04:58:19;9.50;99.90
3626;DHT22;1827;50.534;8.316;2022-09-01T05:00:46;9.40;99.90
3626;DHT22;1827;50.534;8.316;2022-09-01T05:03:15;9.40;99.90
3626;DHT22;1827;50.534;8.316;2022-09-01T05:05:52;9.40;99.90
3626;DHT22;1827;50.534;8.316;2022-09-01T05:08:25;9.50;99.90
3626;DHT22;1827;50.534;8.316;2022-09-01T05:10:56;9.50;99.90
3626;DHT22;1827;50.534;8.316;2022-09-01T05:13:46;9.50;99.90
3626;DHT22;1827;50.534;8.316;2022-09-01T05:16:14;9.40;99.90
3626;DHT22;1827;50.534;8.316;2022-09-01T05:18:43;9.40;99.90
3626;DHT22;1827;50.534;8.316;2022-09-01T05:21:13;9.50;99.90
3626;DHT22;1827;50.534;8.316;2022-09-01T05:23:40;9.50;99.90
3626;DHT22;1827;50.534;8.316;2022-09-01T05:26:14;9.60;99.90
3626;DHT22;1827;50.534;8.316;2022-09-01T05:28:42;9.60;99.90
3626;DHT22;1827;50.534;8.316;2022-09-01T05:31:08;9.70;99.90
3626;DHT22;1827;50.534;8.316;2022-09-01T05:33:35;9.80;99.90
3626;DHT22;1827;50.534;8.316;2022-09-01T05:36:01;9.80;99.90
3626;DHT22;1827;50.534;8.316;2022-09-01T05:38:29;9.90;99.90
3626;DHT22;1827;50.534;8.316;2022-09-01T05:40:57;9.90;99.90
3626;DHT22;1827;50.534;8.316;2022-09-01T05:43:23;10.00;99.90
3626;DHT22;1827;50.534;8.316;2022-09-01T05:45:52;10.10;99.90
3626;DHT22;1827;50.534;8.316;2022-09-01T05:48:18;10.10;99.90
3626;DHT22;1827;50.534;8.316;2022-09-01T05:50:46;10.30;99.90
3626;DHT22;1827;50.534;8.316;2022-09-01T05:53:14;10.40;99.90
3626;DHT22;1827;50.534;8.316;2022-09-01T05:55:42;10.40;99.90
3626;DHT22;1827;50.534;8.316;2022-09-01T05:58:09;10.40;99.90
3626;DHT22;1827;50.534;8.316;2022-09-01T06:00:44;10.40;99.90
3626;DHT22;1827;50.534;8.316;2022-09-01T06:03:14;10.40;99.90
3626;DHT22;1827;50.534;8.316;2022-09-01T06:05:43;10.40;99.90
3626;DHT22;1827;50.534;8.316;2022-09-01T06:08:13;10.30;99.90
3626;DHT22;1827;50.534;8.316;2022-09-01T06:10:42;10.30;99.90
3626;DHT22;1827;50.534;8.316;2022-09-01T06:13:08;10.30;99.90
3626;DHT22;1827;50.534;8.316;2022-09-01T06:15:34;10.40;99.90
3626;DHT22;1827;50.534;8.316;2022-09-01T06:18:06;10.50;99.90
3626;DHT22;1827;50.534;8.316;2022-09-01T06:20:40;10.60;99.90
3626;DHT22;1827;50.534;8.316;2022-09-01T06:23:09;10.70;99.90
3626;DHT22;1827;50.534;8.316;2022-09-01T06:25:37;10.70;99.90
3626;DHT22;1827;50.534;8.316;2022-09-01T06:28:04;10.90;99.90
3626;DHT22;1827;50.534;8.316;2022-09-01T06:30:30;10.90;99.90
3626;DHT22;1827;50.534;8.316;2022-09-01T06:33:02;11.00;99.90
3626;DHT22;1827;50.534;8.316;2022-09-01T06:35:31;11.00;99.90
3626;DHT22;1827;50.534;8.316;2022-09-01T06:37:57;11.00;99.90
3626;DHT22;1827;50.534;8.316;2022-09-01T06:40:39;11.10;99.90
3626;DHT22;1827;50.534;8.316;2022-09-01T06:43:06;11.40;99.90
3626;DHT22;1827;50.534;8.316;2022-09-01T06:45:43;11.40;99.90
3626;DHT22;1827;50.534;8.316;2022-09-01T06:48:10;11.50;99.90
3626;DHT22;1827;50.534;8.316;2022-09-01T06:50:41;11.60;99.90
3626;DHT22;1827;50.534;8.316;2022-09-01T06:53:08;11.80;99.90
3626;DHT22;1827;50.534;8.316;2022-09-01T06:55:39;11.90;99.90
3626;DHT22;1827;50.534;8.316;2022-09-01T06:58:06;12.00;99.90
3626;DHT22;1827;50.534;8.316;2022-09-01T07:00:38;12.20;99.90
3626;DHT22;1827;50.534;8.316;2022-09-01T07:03:08;12.30;99.90
3626;DHT22;1827;50.534;8.316;2022-09-01T07:05:41;12.60;99.90
3626;DHT22;1827;50.534;8.316;2022-09-01T07:08:08;12.90;99.90
3626;DHT22;1827;50.534;8.316;2022-09-01T07:11:02;13.30;99.90
3626;DHT22;1827;50.534;8.316;2022-09-01T07:13:31;13.80;99.90
3626;DHT22;1827;50.534;8.316;2022-09-01T07:15:59;14.00;99.90
3626;DHT22;1827;50.534;8.316;2022-09-01T07:18:30;14.50;99.90
3626;DHT22;1827;50.534;8.316;2022-09-01T07:20:56;14.80;99.90
3626;DHT22;1827;50.534;8.316;2022-09-01T07:23:22;14.90;99.90
3626;DHT22;1827;50.534;8.316;2022-09-01T07:25:52;15.10;99.90
3626;DHT22;1827;50.534;8.316;2022-09-01T07:28:28;15.50;99.90
3626;DHT22;1827;50.534;8.316;2022-09-01T07:30:58;15.80;99.90
3626;DHT22;1827;50.534;8.316;2022-09-01T07:33:25;16.00;99.90
3626;DHT22;1827;50.534;8.316;2022-09-01T07:35:54;16.30;99.90
3626;DHT22;1827;50.534;8.316;2022-09-01T07:38:22;16.20;99.90
3626;DHT22;1827;50.534;8.316;2022-09-01T07:40:48;16.90;99.90
3626;DHT22;1827;50.534;8.316;2022-09-01T07:43:55;17.20;99.90
3626;DHT22;1827;50.534;8.316;2022-09-01T07:46:40;16.70;99.90
3626;DHT22;1827;50.534;8.316;2022-09-01T07:49:17;16.70;99.90
3626;DHT22;1827;50.534;8.316;2022-09-01T07:51:44;16.50;99.90
3626;DHT22;1827;50.534;8.316;2022-09-01T07:54:16;16.60;99.90
3626;DHT22;1827;50.534;8.316;2022-09-01T07:56:42;16.80;99.90
3626;DHT22;1827;50.534;8.316;2022-09-01T07:59:10;16.90;99.90
3626;DHT22;1827;50.534;8.316;2022-09-01T08:01:43;16.80;99.90
3626;DHT22;1827;50.534;8.316;2022-09-01T08:04:13;17.10;99.90
3626;DHT22;1827;50.534;8.316;2022-09-01T08:06:40;16.80;99.90
3626;DHT22;1827;50.534;8.316;2022-09-01T08:09:07;17.00;99.90
3626;DHT22;1827;50.534;8.316;2022-09-01T08:11:35;16.70;99.90
3626;DHT22;1827;50.534;8.316;2022-09-01T08:14:01;16.80;99.90
3626;DHT22;1827;50.534;8.316;2022-09-01T08:16:29;17.00;99.90
3626;DHT22;1827;50.534;8.316;2022-09-01T08:18:57;17.20;99.90
3626;DHT22;1827;50.534;8.316;2022-09-01T08:21:27;17.80;99.90
3626;DHT22;1827;50.534;8.316;2022-09-01T08:24:01;18.20;99.90
3626;DHT22;1827;50.534;8.316;2022-09-01T08:26:27;19.20;99.90
3626;DHT22;1827;50.534;8.316;2022-09-01T08:28:53;19.10;99.90
3626;DHT22;1827;50.534;8.316;2022-09-01T08:31:25;18.70;99.90
3626;DHT22;1827;50.534;8.316;2022-09-01T08:33:53;18.90;99.90
3626;DHT22;1827;50.534;8.316;2022-09-01T08:36:19;19.40;99.90
3626;DHT22;1827;50.534;8.316;2022-09-01T08:38:45;19.60;99.90
3626;DHT22;1827;50.534;8.316;2022-09-01T08:41:39;19.20;99.90
3626;DHT22;1827;50.534;8.316;2022-09-01T08:46:38;19.60;99.90
3626;DHT22;1827;50.534;8.316;2022-09-01T08:49:18;18.70;99.90
3626;DHT22;1827;50.534;8.316;2022-09-01T08:54:54;19.50;99.90
3626;DHT22;1827;50.534;8.316;2022-09-01T08:57:42;19.40;99.90
3626;DHT22;1827;50.534;8.316;2022-09-01T09:00:19;19.60;99.90
3626;DHT22;1827;50.534;8.316;2022-09-01T09:03:05;19.60;99.90
3626;DHT22;1827;50.534;8.316;2022-09-01T09:05:42;20.10;99.90
3626;DHT22;1827;50.534;8.316;2022-09-01T09:15:53;20.00;99.90
3626;DHT22;1827;50.534;8.316;2022-09-01T09:18:27;20.10;99.90
3626;DHT22;1827;50.534;8.316;2022-09-01T09:20:53;20.50;99.90
3626;DHT22;1827;50.534;8.316;2022-09-01T09:23:27;20.90;99.90
3626;DHT22;1827;50.534;8.316;2022-09-01T09:25:54;20.70;99.90
3626;DHT22;1827;50.534;8.316;2022-09-01T09:28:20;20.90;99.90
3626;DHT22;1827;50.534;8.316;2022-09-01T09:30:46;21.00;99.90
3626;DHT22;1827;50.534;8.316;2022-09-01T09:33:34;21.30;99.90
3626;DHT22;1827;50.534;8.316;2022-09-01T09:36:17;21.60;99.90
3626;DHT22;1827;50.534;8.316;2022-09-01T09:38:43;22.10;99.90
3626;DHT22;1827;50.534;8.316;2022-09-01T09:43:35;21.80;99.90
3626;DHT22;1827;50.534;8.316;2022-09-01T09:48:48;22.10;99.90
3626;DHT22;1827;50.534;8.316;2022-09-01T09:51:23;23.00;99.90
3626;DHT22;1827;50.534;8.316;2022-09-01T09:53:50;23.60;99.90
3626;DHT22;1827;50.534;8.316;2022-09-01T09:56:23;22.90;99.90
3626;DHT22;1827;50.534;8.316;2022-09-01T09:58:51;22.20;99.90
3626;DHT22;1827;50.534;8.316;2022-09-01T10:03:52;21.80;99.90
3626;DHT22;1827;50.534;8.316;2022-09-01T10:08:57;22.40;99.90
3626;DHT22;1827;50.534;8.316;2022-09-01T10:11:24;22.30;99.90
3626;DHT22;1827;50.534;8.316;2022-09-01T10:13:54;22.50;99.90
3626;DHT22;1827;50.534;8.316;2022-09-01T10:16:29;22.40;99.90
3626;DHT22;1827;50.534;8.316;2022-09-01T10:18:57;22.10;99.90
3626;DHT22;1827;50.534;8.316;2022-09-01T10:21:36;22.30;99.90
3626;DHT22;1827;50.534;8.316;2022-09-01T10:24:47;22.10;99.90
3626;DHT22;1827;50.534;8.316;2022-09-01T10:26:49;22.90;99.90
3626;DHT22;1827;50.534;8.316;2022-09-01T10:29:19;23.60;99.90
3626;DHT22;1827;50.534;8.316;2022-09-01T10:31:46;24.10;99.90
3626;DHT22;1827;50.534;8.316;2022-09-01T10:34:13;24.20;99.90
3626;DHT22;1827;50.534;8.316;2022-09-01T10:36:39;24.70;99.90
3626;DHT22;1827;50.534;8.316;2022-09-01T10:39:07;23.70;99.90
3626;DHT22;1827;50.534;8.316;2022-09-01T10:41:56;23.20;99.90
3626;DHT22;1827;50.534;8.316;2022-09-01T10:44:23;23.20;99.90
3626;DHT22;1827;50.534;8.316;2022-09-01T10:46:49;23.70;99.90
3626;DHT22;1827;50.534;8.316;2022-09-01T10:51:58;23.40;99.90
3626;DHT22;1827;50.534;8.316;2022-09-01T10:57:08;23.30;99.90
3626;DHT22;1827;50.534;8.316;2022-09-01T10:59:35;24.00;99.90
3626;DHT22;1827;50.534;8.316;2022-09-01T11:07:02;22.50;96.80
3626;DHT22;1827;50.534;8.316;2022-09-01T11:09:35;23.20;99.30
3626;DHT22;1827;50.534;8.316;2022-09-01T11:12:20;24.00;99.40
3626;DHT22;1827;50.534;8.316;2022-09-01T11:15:05;23.80;98.70
3626;DHT22;1827;50.534;8.316;2022-09-01T11:23:07;23.80;98.20
3626;DHT22;1827;50.534;8.316;2022-09-01T11:25:45;23.90;95.80
3626;DHT22;1827;50.534;8.316;2022-09-01T11:35:41;23.10;95.00
3626;DHT22;1827;50.534;8.316;2022-09-01T11:38:08;23.20;94.50
3626;DHT22;1827;50.534;8.316;2022-09-01T11:40:36;23.20;95.70
3626;DHT22;1827;50.534;8.316;2022-09-01T11:43:06;24.10;94.60
3626;DHT22;1827;50.534;8.316;2022-09-01T11:45:32;24.80;92.60
3626;DHT22;1827;50.534;8.316;2022-09-01T11:48:06;25.00;93.50
3626;DHT22;1827;50.534;8.316;2022-09-01T11:50:40;25.00;92.90
3626;DHT22;1827;50.534;8.316;2022-09-01T11:53:11;25.10;92.70
3626;DHT22;1827;50.534;8.316;2022-09-01T11:55:39;26.30;93.70
3626;DHT22;1827;50.534;8.316;2022-09-01T11:58:12;27.50;92.20
3626;DHT22;1827;50.534;8.316;2022-09-01T12:00:40;28.20;90.00
3626;DHT22;1827;50.534;8.316;2022-09-01T12:03:27;27.20;90.70
3626;DHT22;1827;50.534;8.316;2022-09-01T12:06:05;26.50;87.70
3626;DHT22;1827;50.534;8.316;2022-09-01T12:08:35;25.60;88.70
3626;DHT22;1827;50.534;8.316;2022-09-01T12:11:24;25.30;88.40
3626;DHT22;1827;50.534;8.316;2022-09-01T12:16:25;25.80;86.50
3626;DHT22;1827;50.534;8.316;2022-09-01T12:18:52;25.10;89.80
3626;DHT22;1827;50.534;8.316;2022-09-01T12:21:23;25.80;87.80
3626;DHT22;1827;50.534;8.316;2022-09-01T12:23:49;26.40;88.00
3626;DHT22;1827;50.534;8.316;2022-09-01T12:26:19;26.70;87.60
3626;DHT22;1827;50.534;8.316;2022-09-01T12:28:47;25.70;84.30
3626;DHT22;1827;50.534;8.316;2022-09-01T12:31:15;24.90;86.40
3626;DHT22;1827;50.534;8.316;2022-09-01T12:33:41;24.50;86.80
3626;DHT22;1827;50.534;8.316;2022-09-01T12:36:41;25.00;86.10
3626;DHT22;1827;50.534;8.316;2022-09-01T12:39:19;24.80;83.90
3626;DHT22;1827;50.534;8.316;2022-09-01T12:41:46;23.90;85.40
3626;DHT22;1827;50.534;8.316;2022-09-01T12:46:54;24.70;86.80
3626;DHT22;1827;50.534;8.316;2022-09-01T12:50:03;25.70;82.50
3626;DHT22;1827;50.534;8.316;2022-09-01T12:54:47;27.10;83.80
3626;DHT22;1827;50.534;8.316;2022-09-01T12:57:23;25.20;77.10
3626;DHT22;1827;50.534;8.316;2022-09-01T13:02:40;25.10;79.10
3626;DHT22;1827;50.534;8.316;2022-09-01T13:07:48;25.50;75.80
3626;DHT22;1827;50.534;8.316;2022-09-01T13:10:14;24.60;75.30
3626;DHT22;1827;50.534;8.316;2022-09-01T13:12:40;23.80;73.80
3626;DHT22;1827;50.534;8.316;2022-09-01T13:15:06;23.50;74.10
3626;DHT22;1827;50.534;8.316;2022-09-01T13:17:32;23.50;76.40
3626;DHT22;1827;50.534;8.316;2022-09-01T13:19:58;23.90;73.90
3626;DHT22;1827;50.534;8.316;2022-09-01T13:22:24;24.40;75.00
3626;DHT22;1827;50.534;8.316;2022-09-01T13:24:49;24.50;75.00
3626;DHT22;1827;50.534;8.316;2022-09-01T13:27:15;25.40;73.50
3626;DHT22;1827;50.534;8.316;2022-09-01T13:29:41;25.40;72.30
3626;DHT22;1827;50.534;8.316;2022-09-01T13:32:06;25.40;72.30
3626;DHT22;1827;50.534;8.316;2022-09-01T13:34:33;26.10;73.30
3626;DHT22;1827;50.534;8.316;2022-09-01T13:36:59;25.80;73.80
3626;DHT22;1827;50.534;8.316;2022-09-01T13:39:25;24.90;72.60
3626;DHT22;1827;50.534;8.316;2022-09-01T13:41:51;24.90;73.20
3626;DHT22;1827;50.534;8.316;2022-09-01T13:44:17;24.80;73.90
3626;DHT22;1827;50.534;8.316;2022-09-01T13:46:43;25.50;74.60
3626;DHT22;1827;50.534;8.316;2022-09-01T13:49:09;25.50;72.20
3626;DHT22;1827;50.534;8.316;2022-09-01T13:51:34;24.90;74.00
3626;DHT22;1827;50.534;8.316;2022-09-01T13:54:02;25.30;73.60
3626;DHT22;1827;50.534;8.316;2022-09-01T13:56:28;25.60;72.30
3626;DHT22;1827;50.534;8.316;2022-09-01T13:58:54;25.30;70.70
3626;DHT22;1827;50.534;8.316;2022-09-01T14:01:19;24.30;71.00
3626;DHT22;1827;50.534;8.316;2022-09-01T14:03:47;24.10;72.20
3626;DHT22;1827;50.534;8.316;2022-09-01T14:06:14;23.70;70.20
3626;DHT22;1827;50.534;8.316;2022-09-01T14:08:40;23.90;71.90
3626;DHT22;1827;50.534;8.316;2022-09-01T14:11:05;24.10;72.20
3626;DHT22;1827;50.534;8.316;2022-09-01T14:13:32;24.70;72.10
3626;DHT22;1827;50.534;8.316;2022-09-01T14:15:58;24.90;70.70
3626;DHT22;1827;50.534;8.316;2022-09-01T14:18:24;25.00;72.40
3626;DHT22;1827;50.534;8.316;2022-09-01T14:20:57;25.20;72.00
3626;DHT22;1827;50.534;8.316;2022-09-01T14:23:24;25.30;73.30
3626;DHT22;1827;50.534;8.316;2022-09-01T14:25:50;25.50;72.40
3626;DHT22;1827;50.534;8.316;2022-09-01T14:28:16;25.70;72.60
3626;DHT22;1827;50.534;8.316;2022-09-01T14:30:42;25.90;69.30
3626;DHT22;1827;50.534;8.316;2022-09-01T14:33:07;25.40;69.10
3626;DHT22;1827;50.534;8.316;2022-09-01T14:35:35;25.50;69.10
3626;DHT22;1827;50.534;8.316;2022-09-01T14:38:02;25.30;71.90
3626;DHT22;1827;50.534;8.316;2022-09-01T14:40:29;25.60;68.50
3626;DHT22;1827;50.534;8.316;2022-09-01T14:42:55;26.00;65.50
3626;DHT22;1827;50.534;8.316;2022-09-01T14:45:22;26.30;63.80
3626;DHT22;1827;50.534;8.316;2022-09-01T14:47:48;25.60;64.90
3626;DHT22;1827;50.534;8.316;2022-09-01T14:50:15;25.70;63.10
3626;DHT22;1827;50.534;8.316;2022-09-01T14:52:41;25.80;64.30
3626;DHT22;1827;50.534;8.316;2022-09-01T14:55:07;26.00;62.30
3626;DHT22;1827;50.534;8.316;2022-09-01T14:57:33;25.30;65.80
3626;DHT22;1827;50.534;8.316;2022-09-01T14:59:58;24.80;66.00
3626;DHT22;1827;50.534;8.316;2022-09-01T15:02:24;24.90;64.20
3626;DHT22;1827;50.534;8.316;2022-09-01T15:04:54;25.30;65.50
3626;DHT22;1827;50.534;8.316;2022-09-01T15:07:20;25.00;65.60
3626;DHT22;1827;50.534;8.316;2022-09-01T15:09:46;24.90;62.90
3626;DHT22;1827;50.534;8.316;2022-09-01T15:12:11;25.10;62.60
3626;DHT22;1827;50.534;8.316;2022-09-01T15:14:37;25.00;62.50
3626;DHT22;1827;50.534;8.316;2022-09-01T15:17:03;25.00;64.10
3626;DHT22;1827;50.534;8.316;2022-09-01T15:19:28;24.80;65.20
3626;DHT22;1827;50.534;8.316;2022-09-01T15:21:54;24.30;63.90
3626;DHT22;1827;50.534;8.316;2022-09-01T15:24:20;24.20;63.90
3626;DHT22;1827;50.534;8.316;2022-09-01T15:26:47;24.20;65.90
3626;DHT22;1827;50.534;8.316;2022-09-01T15:29:13;24.20;62.80
3626;DHT22;1827;50.534;8.316;2022-09-01T15:31:40;24.00;63.70
3626;DHT22;1827;50.534;8.316;2022-09-01T15:34:06;24.10;63.30
3626;DHT22;1827;50.534;8.316;2022-09-01T15:36:33;24.00;65.30
3626;DHT22;1827;50.534;8.316;2022-09-01T15:39:00;23.70;66.30
3626;DHT22;1827;50.534;8.316;2022-09-01T15:41:27;23.60;65.10
3626;DHT22;1827;50.534;8.316;2022-09-01T15:43:53;23.40;65.50
3626;DHT22;1827;50.534;8.316;2022-09-01T15:46:19;23.70;67.70
3626;DHT22;1827;50.534;8.316;2022-09-01T15:48:45;23.80;63.90
3626;DHT22;1827;50.534;8.316;2022-09-01T15:53:37;24.20;67.10
3626;DHT22;1827;50.534;8.316;2022-09-01T15:56:02;24.40;66.50
3626;DHT22;1827;50.534;8.316;2022-09-01T15:58:28;24.50;65.00
3626;DHT22;1827;50.534;8.316;2022-09-01T16:00:54;24.70;68.10
3626;DHT22;1827;50.534;8.316;2022-09-01T16:03:21;24.70;65.30
3626;DHT22;1827;50.534;8.316;2022-09-01T16:05:48;24.70;66.70
3626;DHT22;1827;50.534;8.316;2022-09-01T16:08:13;24.40;64.60
3626;DHT22;1827;50.534;8.316;2022-09-01T16:10:39;24.40;63.40
3626;DHT22;1827;50.534;8.316;2022-09-01T16:13:06;24.30;64.40
3626;DHT22;1827;50.534;8.316;2022-09-01T16:15:32;24.40;65.60
3626;DHT22;1827;50.534;8.316;2022-09-01T16:18:06;24.30;63.30
3626;DHT22;1827;50.534;8.316;2022-09-01T16:23:12;24.30;62.60
3626;DHT22;1827;50.534;8.316;2022-09-01T16:25:38;24.30;63.50
3626;DHT22;1827;50.534;8.316;2022-09-01T16:28:39;23.90;61.40
3626;DHT22;1827;50.534;8.316;2022-09-01T16:33:35;23.70;62.50
3626;DHT22;1827;50.534;8.316;2022-09-01T16:41:03;23.60;62.80
3626;DHT22;1827;50.534;8.316;2022-09-01T16:43:47;23.50;64.00
3626;DHT22;1827;50.534;8.316;2022-09-01T16:46:31;23.50;61.20
3626;DHT22;1827;50.534;8.316;2022-09-01T16:53:57;23.30;60.90
3626;DHT22;1827;50.534;8.316;2022-09-01T16:56:41;23.20;60.20
3626;DHT22;1827;50.534;8.316;2022-09-01T17:10:42;22.80;61.10
3626;DHT22;1827;50.534;8.316;2022-09-01T17:16:10;22.80;61.00
3626;DHT22;1827;50.534;8.316;2022-09-01T17:18:40;22.70;60.60
3626;DHT22;1827;50.534;8.316;2022-09-01T17:21:08;22.60;60.00
3626;DHT22;1827;50.534;8.316;2022-09-01T17:23:36;22.50;60.40
3626;DHT22;1827;50.534;8.316;2022-09-01T17:26:06;22.40;61.30
3626;DHT22;1827;50.534;8.316;2022-09-01T17:28:35;22.30;61.70
3626;DHT22;1827;50.534;8.316;2022-09-01T17:31:08;22.30;62.60
3626;DHT22;1827;50.534;8.316;2022-09-01T17:36:13;22.10;62.60
3626;DHT22;1827;50.534;8.316;2022-09-01T17:48:53;21.90;62.20
3626;DHT22;1827;50.534;8.316;2022-09-01T17:51:29;21.80;63.30
3626;DHT22;1827;50.534;8.316;2022-09-01T17:54:11;21.80;61.00
3626;DHT22;1827;50.534;8.316;2022-09-01T17:59:37;21.80;60.30
3626;DHT22;1827;50.534;8.316;2022-09-01T18:04:36;21.80;60.80
3626;DHT22;1827;50.534;8.316;2022-09-01T18:07:09;21.70;60.90
3626;DHT22;1827;50.534;8.316;2022-09-01T18:09:42;21.60;61.30
3626;DHT22;1827;50.534;8.316;2022-09-01T18:12:09;21.40;61.10
3626;DHT22;1827;50.534;8.316;2022-09-01T18:17:24;21.30;60.80
3626;DHT22;1827;50.534;8.316;2022-09-01T18:19:57;21.10;62.30